sensor_id;sensor_type;location;lat;lon;timestamp;P1;durP1;ratioP1;P2;durP2;ratioP2
23113;SDS011;11726;50.122;8.832;2023-01-19T00:00:49;29.95;;;16.50;;
23113;SDS011;11726;50.122;8.832;2023-01-19T00:03:16;28.13;;;15.25;;
23113;SDS011;11726;50.122;8.832;2023-01-19T00:05:43;26.83;;;15.07;;
23113;SDS011;11726;50.122;8.832;2023-01-19T00:08:10;26.75;;;15.82;;
23113;SDS011;11726;50.122;8.832;2023-01-19T00:10:41;25.52;;;16.08;;
23113;SDS011;11726;50.122;8.832;2023-01-19T00:13:09;25.33;;;14.80;;
23113;SDS011;11726;50.122;8.832;2023-01-19T00:15:35;27.60;;;15.73;;
23113;SDS011;11726;50.122;8.832;2023-01-19T00:18:02;25.48;;;14.50;;
23113;SDS011;11726;50.122;8.832;2023-01-19T00:20:29;26.40;;;15.02;;
23113;SDS011;11726;50.122;8.832;2023-01-19T00:23:01;22.55;;;13.43;;
23113;SDS011;11726;50.122;8.832;2023-01-19T00:25:29;21.35;;;13.27;;
23113;SDS011;11726;50.122;8.832;2023-01-19T00:27:56;21.65;;;13.30;;
23113;SDS011;11726;50.122;8.832;2023-01-19T00:30:26;22.45;;;13.13;;
23113;SDS011;11726;50.122;8.832;2023-01-19T00:32:53;25.50;;;14.13;;
23113;SDS011;11726;50.122;8.832;2023-01-19T00:35:19;25.58;;;14.25;;
23113;SDS011;11726;50.122;8.832;2023-01-19T00:37:46;21.70;;;13.13;;
23113;SDS011;11726;50.122;8.832;2023-01-19T00:40:13;24.17;;;14.25;;
23113;SDS011;11726;50.122;8.832;2023-01-19T00:42:40;21.10;;;11.40;;
23113;SDS011;11726;50.122;8.832;2023-01-19T00:45:10;21.00;;;12.20;;
23113;SDS011;11726;50.122;8.832;2023-01-19T00:47:38;20.38;;;12.75;;
23113;SDS011;11726;50.122;8.832;2023-01-19T00:50:06;21.80;;;12.48;;
23113;SDS011;11726;50.122;8.832;2023-01-19T00:52:37;22.70;;;12.50;;
23113;SDS011;11726;50.122;8.832;2023-01-19T00:55:12;22.45;;;12.82;;
23113;SDS011;11726;50.122;8.832;2023-01-19T00:57:41;23.38;;;13.13;;
23113;SDS011;11726;50.122;8.832;2023-01-19T01:00:10;21.88;;;12.75;;
23113;SDS011;11726;50.122;8.832;2023-01-19T01:02:39;24.02;;;12.93;;
23113;SDS011;11726;50.122;8.832;2023-01-19T01:05:07;20.08;;;12.52;;
23113;SDS011;11726;50.122;8.832;2023-01-19T01:07:34;22.40;;;12.85;;
23113;SDS011;11726;50.122;8.832;2023-01-19T01:10:07;21.25;;;12.07;;
23113;SDS011;11726;50.122;8.832;2023-01-19T01:12:36;22.02;;;12.35;;
23113;SDS011;11726;50.122;8.832;2023-01-19T01:15:03;24.55;;;12.85;;
23113;SDS011;11726;50.122;8.832;2023-01-19T01:17:31;23.40;;;12.80;;
23113;SDS011;11726;50.122;8.832;2023-01-19T01:19:58;23.20;;;13.35;;
23113;SDS011;11726;50.122;8.832;2023-01-19T01:22:25;19.80;;;12.48;;
23113;SDS011;11726;50.122;8.832;2023-01-19T01:24:52;26.52;;;13.07;;
23113;SDS011;11726;50.122;8.832;2023-01-19T01:27:19;21.95;;;12.25;;
23113;SDS011;11726;50.122;8.832;2023-01-19T01:29:46;23.98;;;13.07;;
23113;SDS011;11726;50.122;8.832;2023-01-19T01:32:13;22.90;;;13.00;;
23113;SDS011;11726;50.122;8.832;2023-01-19T01:34:41;23.35;;;12.98;;
23113;SDS011;11726;50.122;8.832;2023-01-19T01:37:08;22.25;;;12.52;;
23113;SDS011;11726;50.122;8.832;2023-01-19T01:39:35;22.33;;;12.93;;
23113;SDS011;11726;50.122;8.832;2023-01-19T01:42:03;20.58;;;12.75;;
23113;SDS011;11726;50.122;8.832;2023-01-19T01:44:42;21.27;;;11.73;;
23113;SDS011;11726;50.122;8.832;2023-01-19T01:50:03;22.20;;;12.35;;
23113;SDS011;11726;50.122;8.832;2023-01-19T01:55:33;23.83;;;12.95;;
23113;SDS011;11726;50.122;8.832;2023-01-19T01:58:04;18.38;;;11.07;;
23113;SDS011;11726;50.122;8.832;2023-01-19T02:00:33;21.38;;;12.27;;
23113;SDS011;11726;50.122;8.832;2023-01-19T02:03:20;22.55;;;12.40;;
23113;SDS011;11726;50.122;8.832;2023-01-19T02:05:49;21.38;;;13.05;;
23113;SDS011;11726;50.122;8.832;2023-01-19T02:11:39;24.50;;;13.40;;
23113;SDS011;11726;50.122;8.832;2023-01-19T02:14:25;20.58;;;12.52;;
23113;SDS011;11726;50.122;8.832;2023-01-19T02:16:52;21.23;;;12.40;;
23113;SDS011;11726;50.122;8.832;2023-01-19T02:19:26;23.52;;;14.52;;
23113;SDS011;11726;50.122;8.832;2023-01-19T02:22:03;25.48;;;13.90;;
23113;SDS011;11726;50.122;8.832;2023-01-19T02:24:36;28.42;;;13.85;;
23113;SDS011;11726;50.122;8.832;2023-01-19T02:27:03;22.80;;;13.27;;
23113;SDS011;11726;50.122;8.832;2023-01-19T02:29:31;25.98;;;14.40;;
23113;SDS011;11726;50.122;8.832;2023-01-19T02:31:58;22.45;;;14.05;;
23113;SDS011;11726;50.122;8.832;2023-01-19T02:34:27;23.23;;;13.80;;
23113;SDS011;11726;50.122;8.832;2023-01-19T02:36:58;23.38;;;14.77;;
23113;SDS011;11726;50.122;8.832;2023-01-19T02:39:33;29.13;;;14.68;;
23113;SDS011;11726;50.122;8.832;2023-01-19T02:42:16;26.60;;;15.25;;
23113;SDS011;11726;50.122;8.832;2023-01-19T02:44:47;26.52;;;15.15;;
23113;SDS011;11726;50.122;8.832;2023-01-19T02:47:16;25.02;;;14.60;;
23113;SDS011;11726;50.122;8.832;2023-01-19T02:49:43;24.20;;;14.88;;
23113;SDS011;11726;50.122;8.832;2023-01-19T02:52:14;23.20;;;13.15;;
23113;SDS011;11726;50.122;8.832;2023-01-19T02:54:48;24.52;;;14.57;;
23113;SDS011;11726;50.122;8.832;2023-01-19T03:00:37;25.77;;;13.20;;
23113;SDS011;11726;50.122;8.832;2023-01-19T03:03:26;24.15;;;14.07;;
23113;SDS011;11726;50.122;8.832;2023-01-19T03:09:02;25.70;;;13.98;;
23113;SDS011;11726;50.122;8.832;2023-01-19T03:11:37;20.63;;;12.88;;
23113;SDS011;11726;50.122;8.832;2023-01-19T03:14:08;23.83;;;13.73;;
23113;SDS011;11726;50.122;8.832;2023-01-19T03:16:45;25.52;;;13.73;;
23113;SDS011;11726;50.122;8.832;2023-01-19T03:19:17;21.80;;;12.68;;
23113;SDS011;11726;50.122;8.832;2023-01-19T03:21:56;22.17;;;12.95;;
23113;SDS011;11726;50.122;8.832;2023-01-19T03:24:25;23.52;;;13.63;;
23113;SDS011;11726;50.122;8.832;2023-01-19T03:27:00;23.73;;;13.55;;
23113;SDS011;11726;50.122;8.832;2023-01-19T03:29:32;19.70;;;12.80;;
23113;SDS011;11726;50.122;8.832;2023-01-19T03:32:00;22.92;;;14.27;;
23113;SDS011;11726;50.122;8.832;2023-01-19T03:34:31;20.05;;;13.00;;
23113;SDS011;11726;50.122;8.832;2023-01-19T03:37:01;23.70;;;13.93;;
23113;SDS011;11726;50.122;8.832;2023-01-19T03:39:29;22.17;;;13.60;;
23113;SDS011;11726;50.122;8.832;2023-01-19T03:41:57;23.52;;;12.93;;
23113;SDS011;11726;50.122;8.832;2023-01-19T03:44:35;23.58;;;13.88;;
23113;SDS011;11726;50.122;8.832;2023-01-19T03:47:03;22.92;;;13.88;;
23113;SDS011;11726;50.122;8.832;2023-01-19T03:49:32;24.15;;;13.65;;
23113;SDS011;11726;50.122;8.832;2023-01-19T03:52:01;24.48;;;13.70;;
23113;SDS011;11726;50.122;8.832;2023-01-19T03:54:27;22.98;;;13.63;;
23113;SDS011;11726;50.122;8.832;2023-01-19T03:56:54;23.10;;;14.23;;
23113;SDS011;11726;50.122;8.832;2023-01-19T03:59:21;23.63;;;13.07;;
23113;SDS011;11726;50.122;8.832;2023-01-19T04:01:48;25.52;;;14.02;;
23113;SDS011;11726;50.122;8.832;2023-01-19T04:04:14;21.90;;;13.60;;
23113;SDS011;11726;50.122;8.832;2023-01-19T04:06:42;24.60;;;13.73;;
23113;SDS011;11726;50.122;8.832;2023-01-19T04:09:09;22.88;;;14.00;;
23113;SDS011;11726;50.122;8.832;2023-01-19T04:11:35;20.42;;;12.85;;
23113;SDS011;11726;50.122;8.832;2023-01-19T04:14:02;24.92;;;14.85;;
23113;SDS011;11726;50.122;8.832;2023-01-19T04:16:29;24.00;;;14.20;;
23113;SDS011;11726;50.122;8.832;2023-01-19T04:18:55;22.67;;;13.85;;
23113;SDS011;11726;50.122;8.832;2023-01-19T04:21:22;20.77;;;12.63;;
23113;SDS011;11726;50.122;8.832;2023-01-19T04:23:48;21.25;;;12.98;;
23113;SDS011;11726;50.122;8.832;2023-01-19T04:26:15;21.33;;;13.57;;
23113;SDS011;11726;50.122;8.832;2023-01-19T04:28:42;20.52;;;13.43;;
23113;SDS011;11726;50.122;8.832;2023-01-19T04:31:09;23.00;;;13.98;;
23113;SDS011;11726;50.122;8.832;2023-01-19T04:33:35;21.50;;;13.52;;
23113;SDS011;11726;50.122;8.832;2023-01-19T04:36:02;26.60;;;14.02;;
23113;SDS011;11726;50.122;8.832;2023-01-19T04:38:29;22.88;;;13.63;;
23113;SDS011;11726;50.122;8.832;2023-01-19T04:40:56;25.10;;;13.10;;
23113;SDS011;11726;50.122;8.832;2023-01-19T04:43:22;25.80;;;14.02;;
23113;SDS011;11726;50.122;8.832;2023-01-19T04:45:49;22.15;;;12.88;;
23113;SDS011;11726;50.122;8.832;2023-01-19T04:48:17;22.13;;;14.20;;
23113;SDS011;11726;50.122;8.832;2023-01-19T04:50:44;22.33;;;14.20;;
23113;SDS011;11726;50.122;8.832;2023-01-19T04:53:11;24.95;;;14.80;;
23113;SDS011;11726;50.122;8.832;2023-01-19T04:55:39;23.98;;;13.63;;
23113;SDS011;11726;50.122;8.832;2023-01-19T04:58:05;22.23;;;13.57;;
23113;SDS011;11726;50.122;8.832;2023-01-19T05:00:32;25.40;;;15.23;;
23113;SDS011;11726;50.122;8.832;2023-01-19T05:02:59;23.85;;;15.05;;
23113;SDS011;11726;50.122;8.832;2023-01-19T05:05:27;24.73;;;14.60;;
23113;SDS011;11726;50.122;8.832;2023-01-19T05:07:53;21.95;;;13.55;;
23113;SDS011;11726;50.122;8.832;2023-01-19T05:10:20;27.73;;;15.32;;
23113;SDS011;11726;50.122;8.832;2023-01-19T05:12:47;24.60;;;15.85;;
23113;SDS011;11726;50.122;8.832;2023-01-19T05:15:14;30.13;;;16.17;;
23113;SDS011;11726;50.122;8.832;2023-01-19T05:17:40;27.50;;;16.10;;
23113;SDS011;11726;50.122;8.832;2023-01-19T05:20:08;24.92;;;15.15;;
23113;SDS011;11726;50.122;8.832;2023-01-19T05:22:36;27.55;;;16.70;;
23113;SDS011;11726;50.122;8.832;2023-01-19T05:25:07;27.75;;;16.77;;
23113;SDS011;11726;50.122;8.832;2023-01-19T05:27:34;26.85;;;16.70;;
23113;SDS011;11726;50.122;8.832;2023-01-19T05:30:02;26.95;;;16.25;;
23113;SDS011;11726;50.122;8.832;2023-01-19T05:32:30;25.42;;;16.42;;
23113;SDS011;11726;50.122;8.832;2023-01-19T05:34:57;28.42;;;15.90;;
23113;SDS011;11726;50.122;8.832;2023-01-19T05:37:24;23.83;;;16.17;;
23113;SDS011;11726;50.122;8.832;2023-01-19T05:39:50;29.85;;;18.40;;
23113;SDS011;11726;50.122;8.832;2023-01-19T05:42:17;30.42;;;19.30;;
23113;SDS011;11726;50.122;8.832;2023-01-19T05:44:44;27.83;;;17.63;;
23113;SDS011;11726;50.122;8.832;2023-01-19T05:47:10;27.75;;;17.27;;
23113;SDS011;11726;50.122;8.832;2023-01-19T05:49:37;24.60;;;16.08;;
23113;SDS011;11726;50.122;8.832;2023-01-19T05:52:04;28.92;;;17.27;;
23113;SDS011;11726;50.122;8.832;2023-01-19T05:54:30;27.67;;;16.70;;
23113;SDS011;11726;50.122;8.832;2023-01-19T05:56:57;27.60;;;15.70;;
23113;SDS011;11726;50.122;8.832;2023-01-19T05:59:23;24.85;;;16.40;;
23113;SDS011;11726;50.122;8.832;2023-01-19T06:01:50;25.95;;;16.50;;
23113;SDS011;11726;50.122;8.832;2023-01-19T06:04:18;27.15;;;17.02;;
23113;SDS011;11726;50.122;8.832;2023-01-19T06:06:48;26.48;;;16.60;;
23113;SDS011;11726;50.122;8.832;2023-01-19T06:09:15;28.95;;;17.42;;
23113;SDS011;11726;50.122;8.832;2023-01-19T06:11:42;29.45;;;18.13;;
23113;SDS011;11726;50.122;8.832;2023-01-19T06:14:10;27.40;;;17.35;;
23113;SDS011;11726;50.122;8.832;2023-01-19T06:16:36;25.08;;;15.48;;
23113;SDS011;11726;50.122;8.832;2023-01-19T06:19:03;26.55;;;16.40;;
23113;SDS011;11726;50.122;8.832;2023-01-19T06:21:30;27.15;;;16.75;;
23113;SDS011;11726;50.122;8.832;2023-01-19T06:23:57;26.00;;;16.73;;
23113;SDS011;11726;50.122;8.832;2023-01-19T06:26:24;25.48;;;16.63;;
23113;SDS011;11726;50.122;8.832;2023-01-19T06:28:51;21.10;;;13.80;;
23113;SDS011;11726;50.122;8.832;2023-01-19T06:31:18;24.17;;;14.90;;
23113;SDS011;11726;50.122;8.832;2023-01-19T06:33:44;21.67;;;14.32;;
23113;SDS011;11726;50.122;8.832;2023-01-19T06:36:11;19.35;;;14.23;;
23113;SDS011;11726;50.122;8.832;2023-01-19T06:38:38;21.50;;;13.85;;
23113;SDS011;11726;50.122;8.832;2023-01-19T06:41:05;22.52;;;14.85;;
23113;SDS011;11726;50.122;8.832;2023-01-19T06:43:32;20.17;;;13.40;;
23113;SDS011;11726;50.122;8.832;2023-01-19T06:45:58;18.80;;;13.07;;
23113;SDS011;11726;50.122;8.832;2023-01-19T06:48:28;20.88;;;13.60;;
23113;SDS011;11726;50.122;8.832;2023-01-19T06:50:55;20.08;;;13.52;;
23113;SDS011;11726;50.122;8.832;2023-01-19T06:53:25;24.27;;;14.13;;
23113;SDS011;11726;50.122;8.832;2023-01-19T06:55:52;17.35;;;12.13;;
23113;SDS011;11726;50.122;8.832;2023-01-19T06:58:23;22.48;;;13.43;;
23113;SDS011;11726;50.122;8.832;2023-01-19T07:00:50;26.02;;;14.48;;
23113;SDS011;11726;50.122;8.832;2023-01-19T07:03:18;19.67;;;13.15;;
23113;SDS011;11726;50.122;8.832;2023-01-19T07:05:50;23.40;;;14.27;;
23113;SDS011;11726;50.122;8.832;2023-01-19T07:08:17;21.85;;;14.15;;
23113;SDS011;11726;50.122;8.832;2023-01-19T07:10:44;23.67;;;14.60;;
23113;SDS011;11726;50.122;8.832;2023-01-19T07:13:31;23.00;;;14.80;;
23113;SDS011;11726;50.122;8.832;2023-01-19T07:16:02;20.92;;;13.93;;
23113;SDS011;11726;50.122;8.832;2023-01-19T07:18:34;23.05;;;15.02;;
23113;SDS011;11726;50.122;8.832;2023-01-19T07:21:01;25.50;;;15.63;;
23113;SDS011;11726;50.122;8.832;2023-01-19T07:23:29;22.55;;;14.60;;
23113;SDS011;11726;50.122;8.832;2023-01-19T07:25:56;23.30;;;14.88;;
23113;SDS011;11726;50.122;8.832;2023-01-19T07:28:23;29.17;;;15.15;;
23113;SDS011;11726;50.122;8.832;2023-01-19T07:30:51;22.30;;;15.00;;
23113;SDS011;11726;50.122;8.832;2023-01-19T07:33:18;24.35;;;15.70;;
23113;SDS011;11726;50.122;8.832;2023-01-19T07:35:47;22.83;;;15.38;;
23113;SDS011;11726;50.122;8.832;2023-01-19T07:38:15;25.40;;;15.57;;
23113;SDS011;11726;50.122;8.832;2023-01-19T07:40:43;23.67;;;15.50;;
23113;SDS011;11726;50.122;8.832;2023-01-19T07:43:12;25.33;;;16.15;;
23113;SDS011;11726;50.122;8.832;2023-01-19T07:45:39;22.52;;;15.55;;
23113;SDS011;11726;50.122;8.832;2023-01-19T07:48:06;23.33;;;15.25;;
23113;SDS011;11726;50.122;8.832;2023-01-19T07:50:32;24.90;;;15.00;;
23113;SDS011;11726;50.122;8.832;2023-01-19T07:53:06;25.90;;;15.32;;
23113;SDS011;11726;50.122;8.832;2023-01-19T07:55:34;22.60;;;14.88;;
23113;SDS011;11726;50.122;8.832;2023-01-19T07:58:01;22.08;;;14.98;;
23113;SDS011;11726;50.122;8.832;2023-01-19T08:00:32;25.38;;;15.35;;
23113;SDS011;11726;50.122;8.832;2023-01-19T08:03:00;23.77;;;14.95;;
23113;SDS011;11726;50.122;8.832;2023-01-19T08:05:28;22.38;;;15.00;;
23113;SDS011;11726;50.122;8.832;2023-01-19T08:07:55;23.40;;;15.55;;
23113;SDS011;11726;50.122;8.832;2023-01-19T08:10:23;23.38;;;14.57;;
23113;SDS011;11726;50.122;8.832;2023-01-19T08:12:55;22.60;;;14.13;;
23113;SDS011;11726;50.122;8.832;2023-01-19T08:15:23;19.38;;;13.27;;
23113;SDS011;11726;50.122;8.832;2023-01-19T08:17:54;19.95;;;14.05;;
23113;SDS011;11726;50.122;8.832;2023-01-19T08:20:25;23.70;;;14.50;;
23113;SDS011;11726;50.122;8.832;2023-01-19T08:22:54;20.13;;;13.85;;
23113;SDS011;11726;50.122;8.832;2023-01-19T08:25:26;20.02;;;13.77;;
23113;SDS011;11726;50.122;8.832;2023-01-19T08:28:00;21.60;;;13.40;;
23113;SDS011;11726;50.122;8.832;2023-01-19T08:30:28;21.27;;;14.23;;
23113;SDS011;11726;50.122;8.832;2023-01-19T08:32:55;18.98;;;13.02;;
23113;SDS011;11726;50.122;8.832;2023-01-19T08:35:29;20.83;;;13.93;;
23113;SDS011;11726;50.122;8.832;2023-01-19T08:37:56;24.88;;;13.32;;
23113;SDS011;11726;50.122;8.832;2023-01-19T08:40:27;20.55;;;13.93;;
23113;SDS011;11726;50.122;8.832;2023-01-19T08:43:05;19.17;;;13.93;;
23113;SDS011;11726;50.122;8.832;2023-01-19T08:45:33;20.02;;;12.82;;
23113;SDS011;11726;50.122;8.832;2023-01-19T08:48:01;21.17;;;13.65;;
23113;SDS011;11726;50.122;8.832;2023-01-19T08:50:29;23.83;;;12.93;;
23113;SDS011;11726;50.122;8.832;2023-01-19T08:52:58;17.95;;;12.48;;
23113;SDS011;11726;50.122;8.832;2023-01-19T08:55:27;21.17;;;12.55;;
23113;SDS011;11726;50.122;8.832;2023-01-19T08:57:55;19.23;;;12.70;;
23113;SDS011;11726;50.122;8.832;2023-01-19T09:00:23;19.77;;;11.98;;
23113;SDS011;11726;50.122;8.832;2023-01-19T09:02:50;18.73;;;12.50;;
23113;SDS011;11726;50.122;8.832;2023-01-19T09:05:17;21.95;;;12.20;;
23113;SDS011;11726;50.122;8.832;2023-01-19T09:07:44;16.95;;;11.75;;
23113;SDS011;11726;50.122;8.832;2023-01-19T09:10:13;18.67;;;12.18;;
23113;SDS011;11726;50.122;8.832;2023-01-19T09:12:41;14.35;;;10.60;;
23113;SDS011;11726;50.122;8.832;2023-01-19T09:15:09;17.90;;;12.32;;
23113;SDS011;11726;50.122;8.832;2023-01-19T09:17:37;20.33;;;12.73;;
23113;SDS011;11726;50.122;8.832;2023-01-19T09:20:04;18.48;;;11.95;;
23113;SDS011;11726;50.122;8.832;2023-01-19T09:22:31;17.00;;;11.50;;
23113;SDS011;11726;50.122;8.832;2023-01-19T09:24:58;18.38;;;12.50;;
23113;SDS011;11726;50.122;8.832;2023-01-19T09:27:25;20.02;;;12.38;;
23113;SDS011;11726;50.122;8.832;2023-01-19T09:29:52;19.23;;;13.27;;
23113;SDS011;11726;50.122;8.832;2023-01-19T09:32:19;18.00;;;12.65;;
23113;SDS011;11726;50.122;8.832;2023-01-19T09:34:46;18.55;;;12.73;;
23113;SDS011;11726;50.122;8.832;2023-01-19T09:37:14;19.35;;;12.88;;
23113;SDS011;11726;50.122;8.832;2023-01-19T09:39:41;19.67;;;13.13;;
23113;SDS011;11726;50.122;8.832;2023-01-19T09:42:19;21.30;;;13.63;;
23113;SDS011;11726;50.122;8.832;2023-01-19T09:44:54;18.70;;;12.18;;
23113;SDS011;11726;50.122;8.832;2023-01-19T09:47:22;17.83;;;12.35;;
23113;SDS011;11726;50.122;8.832;2023-01-19T09:49:57;16.95;;;12.00;;
23113;SDS011;11726;50.122;8.832;2023-01-19T09:52:30;17.95;;;12.15;;
23113;SDS011;11726;50.122;8.832;2023-01-19T09:55:00;16.02;;;11.68;;
23113;SDS011;11726;50.122;8.832;2023-01-19T09:57:27;17.38;;;12.32;;
23113;SDS011;11726;50.122;8.832;2023-01-19T09:59:55;14.73;;;11.13;;
23113;SDS011;11726;50.122;8.832;2023-01-19T10:02:33;18.08;;;12.23;;
23113;SDS011;11726;50.122;8.832;2023-01-19T10:10:34;17.60;;;10.98;;
23113;SDS011;11726;50.122;8.832;2023-01-19T10:19:27;15.82;;;10.95;;
23113;SDS011;11726;50.122;8.832;2023-01-19T10:21:54;15.77;;;10.50;;
23113;SDS011;11726;50.122;8.832;2023-01-19T10:24:31;17.95;;;10.15;;
23113;SDS011;11726;50.122;8.832;2023-01-19T10:27:09;19.02;;;11.13;;
23113;SDS011;11726;50.122;8.832;2023-01-19T10:29:45;15.48;;;10.45;;
23113;SDS011;11726;50.122;8.832;2023-01-19T10:32:13;16.20;;;10.00;;
23113;SDS011;11726;50.122;8.832;2023-01-19T10:34:43;15.25;;;11.02;;
23113;SDS011;11726;50.122;8.832;2023-01-19T10:37:16;14.07;;;9.73;;
23113;SDS011;11726;50.122;8.832;2023-01-19T10:39:51;13.95;;;10.35;;
23113;SDS011;11726;50.122;8.832;2023-01-19T10:42:20;14.95;;;10.50;;
23113;SDS011;11726;50.122;8.832;2023-01-19T10:44:46;15.65;;;10.57;;
23113;SDS011;11726;50.122;8.832;2023-01-19T10:47:16;14.88;;;10.80;;
23113;SDS011;11726;50.122;8.832;2023-01-19T10:49:44;16.63;;;10.77;;
23113;SDS011;11726;50.122;8.832;2023-01-19T10:52:46;15.35;;;10.70;;
23113;SDS011;11726;50.122;8.832;2023-01-19T10:55:07;14.30;;;10.23;;
23113;SDS011;11726;50.122;8.832;2023-01-19T10:57:51;15.05;;;10.93;;
23113;SDS011;11726;50.122;8.832;2023-01-19T11:06:41;18.92;;;12.52;;
23113;SDS011;11726;50.122;8.832;2023-01-19T11:08:50;18.15;;;11.90;;
23113;SDS011;11726;50.122;8.832;2023-01-19T11:11:18;16.35;;;11.63;;
23113;SDS011;11726;50.122;8.832;2023-01-19T11:14:00;16.55;;;12.05;;
23113;SDS011;11726;50.122;8.832;2023-01-19T11:19:00;17.73;;;11.73;;
23113;SDS011;11726;50.122;8.832;2023-01-19T11:21:28;18.65;;;11.50;;
23113;SDS011;11726;50.122;8.832;2023-01-19T11:23:58;19.25;;;12.32;;
23113;SDS011;11726;50.122;8.832;2023-01-19T11:26:40;18.33;;;13.20;;
23113;SDS011;11726;50.122;8.832;2023-01-19T11:29:27;16.63;;;11.27;;
23113;SDS011;11726;50.122;8.832;2023-01-19T11:31:55;18.25;;;13.07;;
23113;SDS011;11726;50.122;8.832;2023-01-19T11:34:44;18.75;;;12.82;;
23113;SDS011;11726;50.122;8.832;2023-01-19T11:39:50;19.13;;;13.70;;
23113;SDS011;11726;50.122;8.832;2023-01-19T11:47:41;21.77;;;14.15;;
23113;SDS011;11726;50.122;8.832;2023-01-19T11:50:26;20.52;;;13.60;;
23113;SDS011;11726;50.122;8.832;2023-01-19T12:03:19;21.98;;;13.02;;
23113;SDS011;11726;50.122;8.832;2023-01-19T12:05:51;18.90;;;13.15;;
23113;SDS011;11726;50.122;8.832;2023-01-19T12:08:26;18.95;;;13.68;;
23113;SDS011;11726;50.122;8.832;2023-01-19T12:11:25;17.70;;;12.82;;
23113;SDS011;11726;50.122;8.832;2023-01-19T12:13:56;17.73;;;12.20;;
23113;SDS011;11726;50.122;8.832;2023-01-19T12:16:28;16.42;;;12.98;;
23113;SDS011;11726;50.122;8.832;2023-01-19T12:19:05;17.15;;;13.27;;
23113;SDS011;11726;50.122;8.832;2023-01-19T12:21:39;19.85;;;13.13;;
23113;SDS011;11726;50.122;8.832;2023-01-19T12:27:04;18.55;;;13.10;;
23113;SDS011;11726;50.122;8.832;2023-01-19T12:29:43;19.20;;;12.93;;
23113;SDS011;11726;50.122;8.832;2023-01-19T12:34:45;20.38;;;12.93;;
23113;SDS011;11726;50.122;8.832;2023-01-19T12:40:16;17.13;;;11.98;;
23113;SDS011;11726;50.122;8.832;2023-01-19T12:42:50;17.23;;;12.40;;
23113;SDS011;11726;50.122;8.832;2023-01-19T12:45:21;21.20;;;13.55;;
23113;SDS011;11726;50.122;8.832;2023-01-19T12:47:53;20.42;;;13.55;;
23113;SDS011;11726;50.122;8.832;2023-01-19T12:50:21;17.90;;;12.50;;
23113;SDS011;11726;50.122;8.832;2023-01-19T12:52:51;18.35;;;12.88;;
23113;SDS011;11726;50.122;8.832;2023-01-19T12:55:24;18.00;;;13.15;;
23113;SDS011;11726;50.122;8.832;2023-01-19T13:00:30;19.98;;;13.18;;
23113;SDS011;11726;50.122;8.832;2023-01-19T13:02:59;20.25;;;12.98;;
23113;SDS011;11726;50.122;8.832;2023-01-19T13:05:50;19.60;;;13.38;;
23113;SDS011;11726;50.122;8.832;2023-01-19T13:08:19;19.52;;;12.27;;
23113;SDS011;11726;50.122;8.832;2023-01-19T13:14:32;17.95;;;12.45;;
23113;SDS011;11726;50.122;8.832;2023-01-19T13:18:56;17.73;;;11.48;;
23113;SDS011;11726;50.122;8.832;2023-01-19T13:24:05;20.85;;;12.93;;
23113;SDS011;11726;50.122;8.832;2023-01-19T13:26:34;17.13;;;12.23;;
23113;SDS011;11726;50.122;8.832;2023-01-19T13:29:07;18.98;;;13.15;;
23113;SDS011;11726;50.122;8.832;2023-01-19T13:31:58;22.02;;;13.98;;
23113;SDS011;11726;50.122;8.832;2023-01-19T13:34:30;18.02;;;13.32;;
23113;SDS011;11726;50.122;8.832;2023-01-19T13:37:16;16.75;;;13.07;;
23113;SDS011;11726;50.122;8.832;2023-01-19T13:39:45;21.65;;;13.45;;
23113;SDS011;11726;50.122;8.832;2023-01-19T13:42:16;18.15;;;12.65;;
23113;SDS011;11726;50.122;8.832;2023-01-19T13:45:02;17.88;;;12.95;;
23113;SDS011;11726;50.122;8.832;2023-01-19T13:47:52;21.20;;;13.77;;
23113;SDS011;11726;50.122;8.832;2023-01-19T13:50:39;20.00;;;13.20;;
23113;SDS011;11726;50.122;8.832;2023-01-19T13:53:17;20.90;;;12.95;;
23113;SDS011;11726;50.122;8.832;2023-01-19T13:55:46;19.88;;;13.77;;
23113;SDS011;11726;50.122;8.832;2023-01-19T13:58:19;21.98;;;13.27;;
23113;SDS011;11726;50.122;8.832;2023-01-19T14:00:47;18.85;;;12.98;;
23113;SDS011;11726;50.122;8.832;2023-01-19T14:05:48;20.95;;;12.80;;
23113;SDS011;11726;50.122;8.832;2023-01-19T14:08:19;21.10;;;13.32;;
23113;SDS011;11726;50.122;8.832;2023-01-19T14:15:51;21.30;;;14.20;;
23113;SDS011;11726;50.122;8.832;2023-01-19T14:20:58;20.58;;;14.02;;
23113;SDS011;11726;50.122;8.832;2023-01-19T14:23:46;21.20;;;13.63;;
23113;SDS011;11726;50.122;8.832;2023-01-19T14:29:22;22.17;;;13.95;;
23113;SDS011;11726;50.122;8.832;2023-01-19T14:32:14;22.73;;;14.25;;
23113;SDS011;11726;50.122;8.832;2023-01-19T14:34:51;27.67;;;16.58;;
23113;SDS011;11726;50.122;8.832;2023-01-19T14:37:25;22.75;;;14.52;;
23113;SDS011;11726;50.122;8.832;2023-01-19T14:39:55;22.40;;;15.38;;
23113;SDS011;11726;50.122;8.832;2023-01-19T14:42:48;24.60;;;15.57;;
23113;SDS011;11726;50.122;8.832;2023-01-19T14:45:22;22.80;;;15.75;;
23113;SDS011;11726;50.122;8.832;2023-01-19T14:48:03;25.98;;;16.38;;
23113;SDS011;11726;50.122;8.832;2023-01-19T14:50:36;25.67;;;16.75;;
23113;SDS011;11726;50.122;8.832;2023-01-19T14:53:17;23.80;;;16.37;;
23113;SDS011;11726;50.122;8.832;2023-01-19T14:55:54;26.25;;;16.42;;
23113;SDS011;11726;50.122;8.832;2023-01-19T14:58:25;23.08;;;15.95;;
23113;SDS011;11726;50.122;8.832;2023-01-19T15:00:52;29.00;;;17.25;;
23113;SDS011;11726;50.122;8.832;2023-01-19T15:03:22;38.08;;;21.98;;
23113;SDS011;11726;50.122;8.832;2023-01-19T15:06:15;28.35;;;16.67;;
23113;SDS011;11726;50.122;8.832;2023-01-19T15:08:43;25.55;;;15.93;;
23113;SDS011;11726;50.122;8.832;2023-01-19T15:11:14;22.60;;;15.07;;
23113;SDS011;11726;50.122;8.832;2023-01-19T15:13:51;25.10;;;16.02;;
23113;SDS011;11726;50.122;8.832;2023-01-19T15:16:18;25.98;;;15.52;;
23113;SDS011;11726;50.122;8.832;2023-01-19T15:18:45;24.92;;;15.55;;
23113;SDS011;11726;50.122;8.832;2023-01-19T15:21:15;20.15;;;14.57;;
23113;SDS011;11726;50.122;8.832;2023-01-19T15:23:48;23.83;;;15.60;;
23113;SDS011;11726;50.122;8.832;2023-01-19T15:26:16;27.88;;;17.20;;
23113;SDS011;11726;50.122;8.832;2023-01-19T15:28:45;22.17;;;13.90;;
23113;SDS011;11726;50.122;8.832;2023-01-19T15:31:20;24.80;;;15.02;;
23113;SDS011;11726;50.122;8.832;2023-01-19T15:33:48;23.40;;;15.10;;
23113;SDS011;11726;50.122;8.832;2023-01-19T15:36:16;22.80;;;15.95;;
23113;SDS011;11726;50.122;8.832;2023-01-19T15:38:45;20.63;;;14.75;;
23113;SDS011;11726;50.122;8.832;2023-01-19T15:41:22;21.30;;;14.57;;
23113;SDS011;11726;50.122;8.832;2023-01-19T15:43:54;21.48;;;14.30;;
23113;SDS011;11726;50.122;8.832;2023-01-19T15:46:22;20.70;;;14.65;;
23113;SDS011;11726;50.122;8.832;2023-01-19T15:48:51;24.42;;;15.50;;
23113;SDS011;11726;50.122;8.832;2023-01-19T15:51:19;24.33;;;14.18;;
23113;SDS011;11726;50.122;8.832;2023-01-19T15:53:48;21.75;;;13.95;;
23113;SDS011;11726;50.122;8.832;2023-01-19T15:56:15;24.00;;;14.40;;
23113;SDS011;11726;50.122;8.832;2023-01-19T15:58:44;22.88;;;14.90;;
23113;SDS011;11726;50.122;8.832;2023-01-19T16:01:11;21.08;;;15.20;;
23113;SDS011;11726;50.122;8.832;2023-01-19T16:03:39;22.85;;;13.75;;
23113;SDS011;11726;50.122;8.832;2023-01-19T16:06:07;24.48;;;15.73;;